sensor_id;sensor_type;location;lat;lon;timestamp;pressure;altitude;pressure_sealevel;temperature;humidity
78643;BME280;67954;47.618;17.606;2023-04-23T00:00:28;99930.22;;;15.32;42.17
78643;BME280;67954;47.618;17.606;2023-04-23T00:01:02;99928.91;;;15.28;42.14
78643;BME280;67954;47.618;17.606;2023-04-23T00:01:33;99934.16;;;15.30;42.25
78643;BME280;67954;47.618;17.606;2023-04-23T00:02:09;99931.63;;;15.28;42.36
78643;BME280;67954;47.618;17.606;2023-04-23T00:02:43;99925.56;;;15.26;41.84
78643;BME280;67954;47.618;17.606;2023-04-23T00:03:14;99930.66;;;15.21;42.21
78643;BME280;67954;47.618;17.606;2023-04-23T00:03:49;99936.28;;;15.20;41.67
78643;BME280;67954;47.618;17.606;2023-04-23T00:04:22;99934.78;;;15.17;42.51
78643;BME280;67954;47.618;17.606;2023-04-23T00:04:56;99923.78;;;15.19;42.18
78643;BME280;67954;47.618;17.606;2023-04-23T00:05:32;99931.34;;;15.23;41.92
78643;BME280;67954;47.618;17.606;2023-04-23T00:06:06;99924.91;;;15.24;42.16
78643;BME280;67954;47.618;17.606;2023-04-23T00:06:41;99931.69;;;15.20;42.02
78643;BME280;67954;47.618;17.606;2023-04-23T00:07:12;99927.41;;;15.11;42.31
78643;BME280;67954;47.618;17.606;2023-04-23T00:07:44;99926.56;;;15.11;42.64
78643;BME280;67954;47.618;17.606;2023-04-23T00:08:17;99933.47;;;15.13;42.13
78643;BME280;67954;47.618;17.606;2023-04-23T00:08:52;99919.09;;;15.13;42.31
78643;BME280;67954;47.618;17.606;2023-04-23T00:09:26;99925.19;;;15.15;42.38
78643;BME280;67954;47.618;17.606;2023-04-23T00:10:00;99932.09;;;15.17;42.38
78643;BME280;67954;47.618;17.606;2023-04-23T00:10:35;99923.56;;;15.20;42.23
78643;BME280;67954;47.618;17.606;2023-04-23T00:11:07;99921.63;;;15.14;42.27
78643;BME280;67954;47.618;17.606;2023-04-23T00:11:38;99921.16;;;15.11;42.36
78643;BME280;67954;47.618;17.606;2023-04-23T00:12:10;99927.41;;;15.11;42.14
78643;BME280;67954;47.618;17.606;2023-04-23T00:12:42;99929.38;;;15.02;42.45
78643;BME280;67954;47.618;17.606;2023-04-23T00:13:13;99931.72;;;15.06;42.58
78643;BME280;67954;47.618;17.606;2023-04-23T00:13:47;99928.16;;;15.05;42.07
78643;BME280;67954;47.618;17.606;2023-04-23T00:14:19;99923.78;;;15.04;42.42
78643;BME280;67954;47.618;17.606;2023-04-23T00:14:50;99927.75;;;15.08;42.60
78643;BME280;67954;47.618;17.606;2023-04-23T00:15:22;99925.72;;;15.10;42.30
78643;BME280;67954;47.618;17.606;2023-04-23T00:15:53;99928.44;;;15.10;42.65
78643;BME280;67954;47.618;17.606;2023-04-23T00:16:25;99926.47;;;15.04;42.98
78643;BME280;67954;47.618;17.606;2023-04-23T00:16:57;99924.50;;;14.98;42.83
78643;BME280;67954;47.618;17.606;2023-04-23T00:17:28;99927.19;;;14.98;42.79
78643;BME280;67954;47.618;17.606;2023-04-23T00:17:58;99928.69;;;15.00;42.76
78643;BME280;67954;47.618;17.606;2023-04-23T00:18:30;99919.56;;;15.01;42.76
78643;BME280;67954;47.618;17.606;2023-04-23T00:19:01;99927.31;;;15.05;42.63
78643;BME280;67954;47.618;17.606;2023-04-23T00:19:32;99933.34;;;15.07;42.92
78643;BME280;67954;47.618;17.606;2023-04-23T00:20:05;99924.31;;;14.99;42.62
78643;BME280;67954;47.618;17.606;2023-04-23T00:20:37;99923.00;;;14.95;42.75
78643;BME280;67954;47.618;17.606;2023-04-23T00:21:08;99921.97;;;14.96;42.88
78643;BME280;67954;47.618;17.606;2023-04-23T00:21:40;99925.69;;;14.95;42.94
78643;BME280;67954;47.618;17.606;2023-04-23T00:22:11;99925.88;;;14.94;43.22
78643;BME280;67954;47.618;17.606;2023-04-23T00:22:43;99925.25;;;14.92;42.87
78643;BME280;67954;47.618;17.606;2023-04-23T00:23:14;99926.63;;;14.88;42.81
78643;BME280;67954;47.618;17.606;2023-04-23T00:23:45;99926.31;;;14.83;42.91
78643;BME280;67954;47.618;17.606;2023-04-23T00:24:16;99928.19;;;14.82;43.05
78643;BME280;67954;47.618;17.606;2023-04-23T00:24:47;99921.56;;;14.85;43.05
78643;BME280;67954;47.618;17.606;2023-04-23T00:25:19;99927.16;;;14.83;43.26
78643;BME280;67954;47.618;17.606;2023-04-23T00:25:50;99922.59;;;14.84;42.69
78643;BME280;67954;47.618;17.606;2023-04-23T00:26:21;99925.31;;;14.84;43.25
78643;BME280;67954;47.618;17.606;2023-04-23T00:26:53;99915.50;;;14.83;43.18
78643;BME280;67954;47.618;17.606;2023-04-23T00:27:23;99922.78;;;14.82;43.06
78643;BME280;67954;47.618;17.606;2023-04-23T00:27:54;99919.41;;;14.80;43.29
78643;BME280;67954;47.618;17.606;2023-04-23T00:28:26;99912.13;;;14.81;43.25
78643;BME280;67954;47.618;17.606;2023-04-23T00:28:58;99914.22;;;14.79;43.38
78643;BME280;67954;47.618;17.606;2023-04-23T00:29:29;99918.59;;;14.80;43.27
78643;BME280;67954;47.618;17.606;2023-04-23T00:30:00;99916.59;;;14.74;43.47
78643;BME280;67954;47.618;17.606;2023-04-23T00:30:33;99917.28;;;14.76;43.35
78643;BME280;67954;47.618;17.606;2023-04-23T00:31:03;99913.06;;;14.73;43.37
78643;BME280;67954;47.618;17.606;2023-04-23T00:31:35;99911.38;;;14.72;44.07
78643;BME280;67954;47.618;17.606;2023-04-23T00:32:06;99913.72;;;14.75;43.64
78643;BME280;67954;47.618;17.606;2023-04-23T00:32:38;99915.59;;;14.75;42.92
78643;BME280;67954;47.618;17.606;2023-04-23T00:33:09;99912.88;;;14.75;43.23
78643;BME280;67954;47.618;17.606;2023-04-23T00:33:40;99912.41;;;14.71;43.22
78643;BME280;67954;47.618;17.606;2023-04-23T00:34:11;99911.56;;;14.71;43.47
78643;BME280;67954;47.618;17.606;2023-04-23T00:34:42;99911.28;;;14.65;43.95
78643;BME280;67954;47.618;17.606;2023-04-23T00:35:14;99902.50;;;14.63;43.90
78643;BME280;67954;47.618;17.606;2023-04-23T00:35:45;99909.78;;;14.63;43.77
78643;BME280;67954;47.618;17.606;2023-04-23T00:36:15;99905.03;;;14.65;43.56
78643;BME280;67954;47.618;17.606;2023-04-23T00:36:47;99910.72;;;14.70;43.76
78643;BME280;67954;47.618;17.606;2023-04-23T00:37:18;99910.06;;;14.68;43.74
78643;BME280;67954;47.618;17.606;2023-04-23T00:37:49;99913.31;;;14.63;43.49
78643;BME280;67954;47.618;17.606;2023-04-23T00:38:21;99909.44;;;14.66;43.78
78643;BME280;67954;47.618;17.606;2023-04-23T00:38:52;99905.50;;;14.69;43.64
78643;BME280;67954;47.618;17.606;2023-04-23T00:39:23;99911.91;;;14.68;43.36
78643;BME280;67954;47.618;17.606;2023-04-23T00:39:54;99908.09;;;14.62;43.75
78643;BME280;67954;47.618;17.606;2023-04-23T00:40:25;99905.25;;;14.55;43.68
78643;BME280;67954;47.618;17.606;2023-04-23T00:40:56;99904.41;;;14.55;44.22
78643;BME280;67954;47.618;17.606;2023-04-23T00:41:27;99912.53;;;14.55;43.91
78643;BME280;67954;47.618;17.606;2023-04-23T00:41:59;99912.34;;;14.56;43.84
78643;BME280;67954;47.618;17.606;2023-04-23T00:42:31;99908.63;;;14.57;43.57
78643;BME280;67954;47.618;17.606;2023-04-23T00:43:02;99901.53;;;14.56;43.42
78643;BME280;67954;47.618;17.606;2023-04-23T00:43:34;99901.53;;;14.56;43.33
78643;BME280;67954;47.618;17.606;2023-04-23T00:44:07;99906.94;;;14.56;43.47
78643;BME280;67954;47.618;17.606;2023-04-23T00:44:39;99903.41;;;14.56;43.45
78643;BME280;67954;47.618;17.606;2023-04-23T00:45:11;99894.84;;;14.52;43.63
78643;BME280;67954;47.618;17.606;2023-04-23T00:45:42;99899.84;;;14.55;43.53
78643;BME280;67954;47.618;17.606;2023-04-23T00:46:13;99895.28;;;14.56;42.82
78643;BME280;67954;47.618;17.606;2023-04-23T00:46:46;99900.88;;;14.54;43.53
78643;BME280;67954;47.618;17.606;2023-04-23T00:47:17;99898.38;;;14.53;42.77
78643;BME280;67954;47.618;17.606;2023-04-23T00:47:50;99901.44;;;14.50;43.44
78643;BME280;67954;47.618;17.606;2023-04-23T00:48:22;99894.34;;;14.49;43.39
78643;BME280;67954;47.618;17.606;2023-04-23T00:48:54;99898.91;;;14.48;43.13
78643;BME280;67954;47.618;17.606;2023-04-23T00:49:25;99894.00;;;14.52;43.29
78643;BME280;67954;47.618;17.606;2023-04-23T00:49:57;99895.28;;;14.56;43.31
78643;BME280;67954;47.618;17.606;2023-04-23T00:50:29;99900.16;;;14.60;42.89
78643;BME280;67954;47.618;17.606;2023-04-23T00:51:03;99900.53;;;14.57;43.15
78643;BME280;67954;47.618;17.606;2023-04-23T00:51:34;99902.56;;;14.55;43.23
78643;BME280;67954;47.618;17.606;2023-04-23T00:52:06;99895.28;;;14.56;43.08
78643;BME280;67954;47.618;17.606;2023-04-23T00:52:36;99897.53;;;14.52;42.90
78643;BME280;67954;47.618;17.606;2023-04-23T00:53:10;99896.97;;;14.57;42.95
78643;BME280;67954;47.618;17.606;2023-04-23T00:53:41;99893.91;;;14.60;42.87
78643;BME280;67954;47.618;17.606;2023-04-23T00:54:13;99897.28;;;14.62;42.66
78643;BME280;67954;47.618;17.606;2023-04-23T00:54:44;99900.34;;;14.59;43.24
78643;BME280;67954;47.618;17.606;2023-04-23T00:55:16;99898.84;;;14.56;42.93
78643;BME280;67954;47.618;17.606;2023-04-23T00:55:46;99895.41;;;14.62;43.01
78643;BME280;67954;47.618;17.606;2023-04-23T00:56:17;99896.25;;;14.63;42.64
78643;BME280;67954;47.618;17.606;2023-04-23T00:56:49;99890.38;;;14.59;42.59
78643;BME280;67954;47.618;17.606;2023-04-23T00:57:20;99890.84;;;14.63;43.03
78643;BME280;67954;47.618;17.606;2023-04-23T00:57:51;99898.78;;;14.64;42.94
78643;BME280;67954;47.618;17.606;2023-04-23T00:58:24;99896.75;;;14.67;42.59
78643;BME280;67954;47.618;17.606;2023-04-23T00:58:55;99894.94;;;14.59;43.12
78643;BME280;67954;47.618;17.606;2023-04-23T00:59:29;99890.84;;;14.63;42.82
78643;BME280;67954;47.618;17.606;2023-04-23T01:00:01;99897.75;;;14.65;42.83
78643;BME280;67954;47.618;17.606;2023-04-23T01:00:37;99893.38;;;14.64;43.02
78643;BME280;67954;47.618;17.606;2023-04-23T01:01:12;99892.53;;;14.64;42.74
78643;BME280;67954;47.618;17.606;2023-04-23T01:01:43;99895.91;;;14.66;43.09
78643;BME280;67954;47.618;17.606;2023-04-23T01:02:16;99893.00;;;14.68;43.30
78643;BME280;67954;47.618;17.606;2023-04-23T01:02:48;99896.94;;;14.65;42.60
78643;BME280;67954;47.618;17.606;2023-04-23T01:03:19;99896.09;;;14.64;43.26
78643;BME280;67954;47.618;17.606;2023-04-23T01:03:52;99887.41;;;14.69;42.24
78643;BME280;67954;47.618;17.606;2023-04-23T01:04:27;99894.97;;;14.74;42.15
78643;BME280;67954;47.618;17.606;2023-04-23T01:05:00;99887.72;;;14.74;42.52
78643;BME280;67954;47.618;17.606;2023-04-23T01:05:34;99888.91;;;14.72;42.21
78643;BME280;67954;47.618;17.606;2023-04-23T01:06:06;99885.53;;;14.70;42.22
78643;BME280;67954;47.618;17.606;2023-04-23T01:06:37;99887.72;;;14.74;42.36
78643;BME280;67954;47.618;17.606;2023-04-23T01:07:09;99885.00;;;14.74;42.66
78643;BME280;67954;47.618;17.606;2023-04-23T01:07:42;99893.78;;;14.76;42.77
78643;BME280;67954;47.618;17.606;2023-04-23T01:08:15;99888.91;;;14.72;42.47
78643;BME280;67954;47.618;17.606;2023-04-23T01:08:47;99890.22;;;14.76;42.60
78643;BME280;67954;47.618;17.606;2023-04-23T01:09:18;99890.72;;;14.79;42.37
78643;BME280;67954;47.618;17.606;2023-04-23T01:09:51;99886.88;;;14.74;42.20
78643;BME280;67954;47.618;17.606;2023-04-23T01:10:22;99888.56;;;14.75;42.25
78643;BME280;67954;47.618;17.606;2023-04-23T01:10:53;99887.72;;;14.74;42.01
78643;BME280;67954;47.618;17.606;2023-04-23T01:11:24;99892.75;;;14.77;42.00
78643;BME280;67954;47.618;17.606;2023-04-23T01:11:56;99884.47;;;14.79;42.29
78643;BME280;67954;47.618;17.606;2023-04-23T01:12:27;99887.63;;;14.82;42.45
78643;BME280;67954;47.618;17.606;2023-04-23T01:12:59;99886.94;;;14.80;41.69
78643;BME280;67954;47.618;17.606;2023-04-23T01:13:31;99882.78;;;14.78;42.71
78643;BME280;67954;47.618;17.606;2023-04-23T01:14:02;99884.06;;;14.82;41.87
78643;BME280;67954;47.618;17.606;2023-04-23T01:14:36;99887.44;;;14.84;42.33
78643;BME280;67954;47.618;17.606;2023-04-23T01:15:09;99885.75;;;14.83;42.11
78643;BME280;67954;47.618;17.606;2023-04-23T01:15:40;99875.97;;;14.82;41.98
78643;BME280;67954;47.618;17.606;2023-04-23T01:16:11;99875.97;;;14.82;42.38
78643;BME280;67954;47.618;17.606;2023-04-23T01:16:42;99884.06;;;14.82;42.73
78643;BME280;67954;47.618;17.606;2023-04-23T01:17:13;99883.22;;;14.81;42.37
78643;BME280;67954;47.618;17.606;2023-04-23T01:17:44;99880.44;;;14.75;42.36
78643;BME280;67954;47.618;17.606;2023-04-23T01:18:15;99887.16;;;14.79;42.19
78643;BME280;67954;47.618;17.606;2023-04-23T01:18:47;99882.38;;;14.81;42.63
78643;BME280;67954;47.618;17.606;2023-04-23T01:19:18;99883.22;;;14.81;42.44
78643;BME280;67954;47.618;17.606;2023-04-23T01:19:49;99886.78;;;14.82;42.31
78643;BME280;67954;47.618;17.606;2023-04-23T01:20:21;99886.41;;;14.85;42.46
78643;BME280;67954;47.618;17.606;2023-04-23T01:20:52;99884.38;;;14.87;41.96
78643;BME280;67954;47.618;17.606;2023-04-23T01:21:24;99884.06;;;14.82;42.19
78643;BME280;67954;47.618;17.606;2023-04-23T01:21:55;99883.72;;;14.85;42.34
78643;BME280;67954;47.618;17.606;2023-04-23T01:22:32;99874.94;;;14.83;41.96
78643;BME280;67954;47.618;17.606;2023-04-23T01:23:03;99881.19;;;14.83;42.11
78643;BME280;67954;47.618;17.606;2023-04-23T01:23:34;99884.06;;;14.82;42.01
78643;BME280;67954;47.618;17.606;2023-04-23T01:24:06;99886.94;;;14.80;42.16
78643;BME280;67954;47.618;17.606;2023-04-23T01:24:37;99872.16;;;14.76;42.12
78643;BME280;67954;47.618;17.606;2023-04-23T01:25:09;99881.94;;;14.77;42.26
78643;BME280;67954;47.618;17.606;2023-04-23T01:25:42;99885.31;;;14.79;42.48
78643;BME280;67954;47.618;17.606;2023-04-23T01:26:13;99885.09;;;14.81;42.44
78643;BME280;67954;47.618;17.606;2023-04-23T01:26:44;99892.56;;;14.79;42.55
78643;BME280;67954;47.618;17.606;2023-04-23T01:27:16;99892.75;;;14.77;42.32
78643;BME280;67954;47.618;17.606;2023-04-23T01:27:49;99889.88;;;14.79;41.99
78643;BME280;67954;47.618;17.606;2023-04-23T01:28:20;99885.47;;;14.78;42.08
78643;BME280;67954;47.618;17.606;2023-04-23T01:28:53;99884.16;;;14.74;42.41
78643;BME280;67954;47.618;17.606;2023-04-23T01:29:24;99886.88;;;14.74;42.33
78643;BME280;67954;47.618;17.606;2023-04-23T01:29:56;99887.88;;;14.73;42.21
78643;BME280;67954;47.618;17.606;2023-04-23T01:30:28;99888.84;;;14.80;42.10
78643;BME280;67954;47.618;17.606;2023-04-23T01:31:00;99883.63;;;14.78;41.86
78643;BME280;67954;47.618;17.606;2023-04-23T01:31:32;99888.19;;;14.78;42.05
78643;BME280;67954;47.618;17.606;2023-04-23T01:32:04;99889.47;;;14.82;42.00
78643;BME280;67954;47.618;17.606;2023-04-23T01:32:35;99886.25;;;14.86;42.65
78643;BME280;67954;47.618;17.606;2023-04-23T01:33:07;99888.28;;;14.84;42.31
78643;BME280;67954;47.618;17.606;2023-04-23T01:33:40;99883.06;;;14.83;41.95
78643;BME280;67954;47.618;17.606;2023-04-23T01:34:11;99878.03;;;14.80;42.36
78643;BME280;67954;47.618;17.606;2023-04-23T01:34:44;99882.59;;;14.79;42.23
78643;BME280;67954;47.618;17.606;2023-04-23T01:35:17;99886.50;;;14.77;42.14
78643;BME280;67954;47.618;17.606;2023-04-23T01:35:48;99878.41;;;14.77;42.27
78643;BME280;67954;47.618;17.606;2023-04-23T01:36:19;99884.47;;;14.79;41.89
78643;BME280;67954;47.618;17.606;2023-04-23T01:36:53;99886.31;;;14.78;42.57
78643;BME280;67954;47.618;17.606;2023-04-23T01:37:25;99884.06;;;14.82;41.99
78643;BME280;67954;47.618;17.606;2023-04-23T01:38:01;99876.97;;;14.81;41.95
78643;BME280;67954;47.618;17.606;2023-04-23T01:38:35;99884.25;;;14.80;42.47
78643;BME280;67954;47.618;17.606;2023-04-23T01:39:08;99883.06;;;14.83;42.25
78643;BME280;67954;47.618;17.606;2023-04-23T01:39:39;99878.47;;;14.83;41.91
78643;BME280;67954;47.618;17.606;2023-04-23T01:40:11;99876.06;;;14.88;41.78
78643;BME280;67954;47.618;17.606;2023-04-23T01:40:43;99882.69;;;14.86;41.66
78643;BME280;67954;47.618;17.606;2023-04-23T01:41:14;99882.03;;;14.84;42.41
78643;BME280;67954;47.618;17.606;2023-04-23T01:41:45;99879.97;;;14.86;42.24
78643;BME280;67954;47.618;17.606;2023-04-23T01:42:17;99874.94;;;14.83;42.11
78643;BME280;67954;47.618;17.606;2023-04-23T01:42:49;99884.06;;;14.82;41.95
78643;BME280;67954;47.618;17.606;2023-04-23T01:43:21;99883.63;;;14.78;41.77
78643;BME280;67954;47.618;17.606;2023-04-23T01:43:53;99882.28;;;14.74;42.17
78643;BME280;67954;47.618;17.606;2023-04-23T01:44:24;99878.75;;;14.74;42.13
78643;BME280;67954;47.618;17.606;2023-04-23T01:44:55;99881.81;;;14.71;42.09
78643;BME280;67954;47.618;17.606;2023-04-23T01:45:26;99880.25;;;14.76;42.18
78643;BME280;67954;47.618;17.606;2023-04-23T01:45:58;99882.78;;;14.78;41.49
78643;BME280;67954;47.618;17.606;2023-04-23T01:46:29;99880.75;;;14.80;41.75
78643;BME280;67954;47.618;17.606;2023-04-23T01:47:00;99877.19;;;14.79;42.24
78643;BME280;67954;47.618;17.606;2023-04-23T01:47:32;99881.53;;;14.80;42.27
78643;BME280;67954;47.618;17.606;2023-04-23T01:48:03;99884.81;;;14.76;41.60
78643;BME280;67954;47.618;17.606;2023-04-23T01:48:35;99881.28;;;14.75;41.98
78643;BME280;67954;47.618;17.606;2023-04-23T01:49:06;99881.47;;;14.74;42.44
78643;BME280;67954;47.618;17.606;2023-04-23T01:49:38;99885.00;;;14.74;42.03
78643;BME280;67954;47.618;17.606;2023-04-23T01:50:09;99879.41;;;14.76;42.03
78643;BME280;67954;47.618;17.606;2023-04-23T01:50:40;99885.00;;;14.74;41.82
78643;BME280;67954;47.618;17.606;2023-04-23T01:51:12;99877.72;;;14.75;41.73
78643;BME280;67954;47.618;17.606;2023-04-23T01:51:43;99878.03;;;14.80;41.96
78643;BME280;67954;47.618;17.606;2023-04-23T01:52:14;99881.09;;;14.77;42.14
78643;BME280;67954;47.618;17.606;2023-04-23T01:52:46;99885.00;;;14.74;42.18
78643;BME280;67954;47.618;17.606;2023-04-23T01:53:18;99874.84;;;14.76;41.96
78643;BME280;67954;47.618;17.606;2023-04-23T01:53:49;99879.06;;;14.79;42.30
78643;BME280;67954;47.618;17.606;2023-04-23T01:54:21;99877.25;;;14.71;42.44
78643;BME280;67954;47.618;17.606;2023-04-23T01:54:52;99880.44;;;14.75;42.31
78643;BME280;67954;47.618;17.606;2023-04-23T01:55:23;99879.13;;;14.71;42.23
78643;BME280;67954;47.618;17.606;2023-04-23T01:55:55;99882.84;;;14.70;41.79
78643;BME280;67954;47.618;17.606;2023-04-23T01:56:27;99876.41;;;14.71;41.99
78643;BME280;67954;47.618;17.606;2023-04-23T01:56:58;99881.47;;;14.74;42.39
78643;BME280;67954;47.618;17.606;2023-04-23T01:57:29;99876.41;;;14.71;41.65
78643;BME280;67954;47.618;17.606;2023-04-23T01:58:01;99875.94;;;14.67;41.74
78643;BME280;67954;47.618;17.606;2023-04-23T01:58:32;99874.81;;;14.61;42.48
78643;BME280;67954;47.618;17.606;2023-04-23T01:59:03;99878.44;;;14.69;42.38
78643;BME280;67954;47.618;17.606;2023-04-23T01:59:34;99880.31;;;14.68;42.09
78643;BME280;67954;47.618;17.606;2023-04-23T02:00:09;99875.75;;;14.69;42.36
78643;BME280;67954;47.618;17.606;2023-04-23T02:00:40;99881.63;;;14.72;42.29
78643;BME280;67954;47.618;17.606;2023-04-23T02:01:11;99875.94;;;14.67;42.33
78643;BME280;67954;47.618;17.606;2023-04-23T02:01:44;99870.44;;;14.60;42.05
78643;BME280;67954;47.618;17.606;2023-04-23T02:02:15;99874.63;;;14.63;41.98
78643;BME280;67954;47.618;17.606;2023-04-23T02:02:46;99871.75;;;14.64;42.45
78643;BME280;67954;47.618;17.606;2023-04-23T02:03:17;99875.28;;;14.65;42.79
78643;BME280;67954;47.618;17.606;2023-04-23T02:03:49;99878.34;;;14.62;42.42
78643;BME280;67954;47.618;17.606;2023-04-23T02:04:21;99879.19;;;14.62;42.59
78643;BME280;67954;47.618;17.606;2023-04-23T02:04:52;99873.63;;;14.64;42.34
78643;BME280;67954;47.618;17.606;2023-04-23T02:05:24;99882.25;;;14.59;42.22
78643;BME280;67954;47.618;17.606;2023-04-23T02:05:59;99871.75;;;14.64;42.63
78643;BME280;67954;47.618;17.606;2023-04-23T02:06:30;99876.50;;;14.62;42.85
78643;BME280;67954;47.618;17.606;2023-04-23T02:07:01;99870.91;;;14.64;42.68
78643;BME280;67954;47.618;17.606;2023-04-23T02:07:33;99871.56;;;14.66;42.56
78643;BME280;67954;47.618;17.606;2023-04-23T02:08:04;99879.38;;;14.61;43.02
78643;BME280;67954;47.618;17.606;2023-04-23T02:08:37;99873.63;;;14.64;43.25
78643;BME280;67954;47.618;17.606;2023-04-23T02:09:07;99874.44;;;14.64;42.64
78643;BME280;67954;47.618;17.606;2023-04-23T02:09:39;99876.97;;;14.66;42.40
78643;BME280;67954;47.618;17.606;2023-04-23T02:10:11;99874.63;;;14.63;42.36
78643;BME280;67954;47.618;17.606;2023-04-23T02:10:42;99871.44;;;14.59;42.78
78643;BME280;67954;47.618;17.606;2023-04-23T02:11:14;99876.69;;;14.61;42.76
78643;BME280;67954;47.618;17.606;2023-04-23T02:11:45;99878.19;;;14.63;42.82
78643;BME280;67954;47.618;17.606;2023-04-23T02:12:15;99875.28;;;14.65;42.78
78643;BME280;67954;47.618;17.606;2023-04-23T02:12:47;99870.06;;;14.63;42.41
78643;BME280;67954;47.618;17.606;2023-04-23T02:13:18;99873.44;;;14.65;42.95
78643;BME280;67954;47.618;17.606;2023-04-23T02:13:49;99865.94;;;14.68;42.06
78643;BME280;67954;47.618;17.606;2023-04-23T02:14:20;99868.66;;;14.68;42.33
78643;BME280;67954;47.618;17.606;2023-04-23T02:14:52;99873.44;;;14.65;42.47
78643;BME280;67954;47.618;17.606;2023-04-23T02:15:23;99868.03;;;14.65;42.61
78643;BME280;67954;47.618;17.606;2023-04-23T02:15:53;99868.88;;;14.66;42.71
78643;BME280;67954;47.618;17.606;2023-04-23T02:16:25;99872.19;;;14.68;42.48
78643;BME280;67954;47.618;17.606;2023-04-23T02:16:57;99869.50;;;14.68;42.77
78643;BME280;67954;47.618;17.606;2023-04-23T02:17:28;99871.19;;;14.69;42.74
78643;BME280;67954;47.618;17.606;2023-04-23T02:18:00;99877.16;;;14.64;42.79
78643;BME280;67954;47.618;17.606;2023-04-23T02:18:31;99871.75;;;14.64;42.71
78643;BME280;67954;47.618;17.606;2023-04-23T02:19:02;99873.44;;;14.65;42.48
78643;BME280;67954;47.618;17.606;2023-04-23T02:19:32;99875.75;;;14.69;42.29
78643;BME280;67954;47.618;17.606;2023-04-23T02:20:06;99874.91;;;14.68;42.84
78643;BME280;67954;47.618;17.606;2023-04-23T02:20:39;99873.44;;;14.65;42.85
78643;BME280;67954;47.618;17.606;2023-04-23T02:21:10;99871.19;;;14.69;42.27
78643;BME280;67954;47.618;17.606;2023-04-23T02:21:42;99878.28;;;14.70;42.13
78643;BME280;67954;47.618;17.606;2023-04-23T02:22:14;99873.88;;;14.69;42.20
78643;BME280;67954;47.618;17.606;2023-04-23T02:22:45;99873.03;;;14.69;42.71
78643;BME280;67954;47.618;17.606;2023-04-23T02:23:16;99876.13;;;14.65;42.56
78643;BME280;67954;47.618;17.606;2023-04-23T02:23:48;99873.44;;;14.65;43.11
78643;BME280;67954;47.618;17.606;2023-04-23T02:24:20;99872.88;;;14.70;42.70
78643;BME280;67954;47.618;17.606;2023-04-23T02:24:51;99878.63;;;14.67;42.34
78643;BME280;67954;47.618;17.606;2023-04-23T02:25:22;99873.88;;;14.69;42.27
78643;BME280;67954;47.618;17.606;2023-04-23T02:25:53;99871.19;;;14.69;42.44
78643;BME280;67954;47.618;17.606;2023-04-23T02:26:24;99867.28;;;14.72;42.56
78643;BME280;67954;47.618;17.606;2023-04-23T02:26:56;99870.16;;;14.70;42.52
78643;BME280;67954;47.618;17.606;2023-04-23T02:27:27;99873.88;;;14.69;42.63
78643;BME280;67954;47.618;17.606;2023-04-23T02:27:59;99868.66;;;14.68;42.39
78643;BME280;67954;47.618;17.606;2023-04-23T02:28:31;99859.91;;;14.65;42.49
78643;BME280;67954;47.618;17.606;2023-04-23T02:29:02;99867.53;;;14.62;42.65
78643;BME280;67954;47.618;17.606;2023-04-23T02:29:34;99862.97;;;14.62;43.06
78643;BME280;67954;47.618;17.606;2023-04-23T02:30:07;99866.03;;;14.59;42.72
78643;BME280;67954;47.618;17.606;2023-04-23T02:30:38;99866.88;;;14.60;43.05
78643;BME280;67954;47.618;17.606;2023-04-23T02:31:14;99871.75;;;14.64;42.36
78643;BME280;67954;47.618;17.606;2023-04-23T02:31:47;99867.19;;;14.65;42.84
78643;BME280;67954;47.618;17.606;2023-04-23T02:32:18;99858.50;;;14.70;42.41
78643;BME280;67954;47.618;17.606;2023-04-23T02:32:49;99862.72;;;14.72;42.54
78643;BME280;67954;47.618;17.606;2023-04-23T02:33:21;99862.53;;;14.74;42.92
78643;BME280;67954;47.618;17.606;2023-04-23T02:33:52;99864.03;;;14.76;43.00
78643;BME280;67954;47.618;17.606;2023-04-23T02:34:22;99868.41;;;14.77;42.49
78643;BME280;67954;47.618;17.606;2023-04-23T02:34:53;99861.31;;;14.76;42.47
78643;BME280;67954;47.618;17.606;2023-04-23T02:35:25;99859.81;;;14.74;42.58
78643;BME280;67954;47.618;17.606;2023-04-23T02:35:56;99861.50;;;14.75;42.42
78643;BME280;67954;47.618;17.606;2023-04-23T02:36:27;99858.63;;;14.76;41.77
78643;BME280;67954;47.618;17.606;2023-04-23T02:37:00;99864.56;;;14.72;42.38
78643;BME280;67954;47.618;17.606;2023-04-23T02:37:31;99861.69;;;14.73;42.48
78643;BME280;67954;47.618;17.606;2023-04-23T02:38:02;99860.00;;;14.72;42.31
78643;BME280;67954;47.618;17.606;2023-04-23T02:38:34;99864.69;;;14.78;41.96
78643;BME280;67954;47.618;17.606;2023-04-23T02:39:06;99861.81;;;14.80;42.58
78643;BME280;67954;47.618;17.606;2023-04-23T02:39:37;99859.09;;;14.80;42.42
78643;BME280;67954;47.618;17.606;2023-04-23T02:40:09;99864.28;;;14.81;42.20
78643;BME280;67954;47.618;17.606;2023-04-23T02:40:41;99858.44;;;14.78;42.04
78643;BME280;67954;47.618;17.606;2023-04-23T02:41:12;99863.66;;;14.79;42.39
78643;BME280;67954;47.618;17.606;2023-04-23T02:41:43;99866.91;;;14.75;42.12
78643;BME280;67954;47.618;17.606;2023-04-23T02:42:15;99858.63;;;14.76;41.56
78643;BME280;67954;47.618;17.606;2023-04-23T02:42:46;99863.66;;;14.79;41.71
78643;BME280;67954;47.618;17.606;2023-04-23T02:43:17;99876.53;;;14.77;41.71
78643;BME280;67954;47.618;17.606;2023-04-23T02:43:48;99866.16;;;14.81;41.79
78643;BME280;67954;47.618;17.606;2023-04-23T02:44:19;99862.44;;;14.82;42.42
78643;BME280;67954;47.618;17.606;2023-04-23T02:44:50;99864.28;;;14.81;42.20
78643;BME280;67954;47.618;17.606;2023-04-23T02:45:21;99868.22;;;14.79;42.25
78643;BME280;67954;47.618;17.606;2023-04-23T02:45:52;99869.72;;;14.81;42.07
78643;BME280;67954;47.618;17.606;2023-04-23T02:46:23;99867.84;;;14.82;42.12